createdAt,value
2022-12-08T00:00:27.235Z,81.4
2022-12-08T00:06:02.610Z,82
2022-12-08T00:11:37.874Z,81.7
2022-12-08T00:17:14.258Z,82
2022-12-08T00:22:49.454Z,81.9
2022-12-08T00:28:32.099Z,81.6
2022-12-08T00:34:07.405Z,81.2
2022-12-08T00:39:45.949Z,80.9
2022-12-08T00:46:50.801Z,80.6
2022-12-08T00:52:24.529Z,80.7
2022-12-08T00:58:20.787Z,80.9
2022-12-08T01:04:08.153Z,81.5
2022-12-08T01:09:44.519Z,82
2022-12-08T01:15:19.475Z,82
2022-12-08T01:20:54.568Z,82
2022-12-08T01:26:30.931Z,81.7
2022-12-08T01:32:26.670Z,81.4
2022-12-08T01:38:03.081Z,80.8
2022-12-08T01:43:38.137Z,80.8
2022-12-08T01:49:34.762Z,80.8
2022-12-08T01:55:09.799Z,80.7
2022-12-08T02:00:45.970Z,81.1
2022-12-08T02:06:20.989Z,81.2
2022-12-08T02:12:00.160Z,81.1
2022-12-08T02:17:56.752Z,81.1
2022-12-08T02:23:34.142Z,81.4
2022-12-08T02:29:09.461Z,81.4
2022-12-08T02:35:02.216Z,80.9
2022-12-08T02:40:38.405Z,80.8
2022-12-08T02:47:21.922Z,80.8
2022-12-08T02:52:54.831Z,81.2
2022-12-08T02:58:56.715Z,81
2022-12-08T03:04:33.171Z,80.9
2022-12-08T03:10:13.209Z,80.9
2022-12-08T03:15:56.465Z,80.9
2022-12-08T03:21:56.066Z,80.9
2022-12-08T03:27:57.744Z,81
2022-12-08T03:33:32.645Z,81.2
2022-12-08T03:39:12.980Z,81.1
2022-12-08T03:44:48.036Z,81
2022-12-08T03:50:23.586Z,80.9
2022-12-08T03:55:59.099Z,81
2022-12-08T04:01:35.185Z,81.2
2022-12-08T04:07:11.239Z,80.9
2022-12-08T04:12:47.322Z,81.2
2022-12-08T04:18:22.543Z,81.2
2022-12-08T04:24:01.752Z,81.3
2022-12-08T04:29:37.397Z,81
2022-12-08T04:35:13.023Z,80.9
2022-12-08T04:40:55.612Z,80.7
2022-12-08T04:46:53.024Z,79.9
2022-12-08T04:52:27.550Z,80
2022-12-08T04:58:02.691Z,79.7
2022-12-08T05:03:54.478Z,79.3
2022-12-08T05:09:29.365Z,79.9
2022-12-08T05:15:04.552Z,79.9
2022-12-08T05:20:39.523Z,80
2022-12-08T05:26:14.645Z,80.1
2022-12-08T05:31:51.541Z,79.9
2022-12-08T05:37:28.216Z,79.7
2022-12-08T05:43:03.264Z,79.6
2022-12-08T05:49:00.143Z,79.6
2022-12-08T05:54:34.268Z,79.9
2022-12-08T06:00:09.920Z,79.8
2022-12-08T06:05:55.271Z,79.6
2022-12-08T06:11:30.567Z,79.6
2022-12-08T06:17:14.302Z,79.7
2022-12-08T06:22:52.147Z,80
2022-12-08T06:28:27.408Z,79.8
2022-12-08T06:34:09.135Z,80.1
2022-12-08T06:39:44.593Z,80
2022-12-08T06:45:19.679Z,79.8
2022-12-08T06:50:55.492Z,79.8
2022-12-08T06:56:43.838Z,79.7
2022-12-08T07:02:36.276Z,79.4
2022-12-08T07:08:16.179Z,79.3
2022-12-08T07:13:52.129Z,79.4
2022-12-08T07:19:27.780Z,79.3
2022-12-08T07:25:02.973Z,79.2
2022-12-08T07:30:39.253Z,79.1
2022-12-08T07:36:16.991Z,79.3
2022-12-08T07:41:52.316Z,79.6
2022-12-08T07:47:49.039Z,79.1
2022-12-08T07:53:22.033Z,79.1
2022-12-08T07:58:58.502Z,78.9
2022-12-08T08:04:34.972Z,79.1
2022-12-08T08:10:11.131Z,82.2
2022-12-08T08:15:50.546Z,84.5
2022-12-08T08:21:46.393Z,84.8
2022-12-08T08:27:22.039Z,86.1
2022-12-08T08:33:00.793Z,86.5
2022-12-08T08:38:35.919Z,85.2
2022-12-08T08:44:11.497Z,86.1
2022-12-08T08:49:47.409Z,85.6
2022-12-08T08:55:22.824Z,85.3
2022-12-08T09:00:58.021Z,84.5
2022-12-08T09:06:35.167Z,84.6
2022-12-08T09:12:10.641Z,84.9
2022-12-08T09:17:46.206Z,84.4
2022-12-08T09:23:21.842Z,83.3
2022-12-08T09:28:57.058Z,82.3
2022-12-08T09:34:33.235Z,82.7
2022-12-08T09:40:08.583Z,82.9
2022-12-08T09:45:46.810Z,84.9
2022-12-08T09:51:22.678Z,85.2
2022-12-08T09:56:57.497Z,84.9
2022-12-08T10:02:32.624Z,85.2
2022-12-08T10:08:13.064Z,85.5
2022-12-08T10:13:50.169Z,84.9
2022-12-08T10:19:47.133Z,83.8
2022-12-08T10:25:23.058Z,82.4
2022-12-08T10:30:59.718Z,82.8
2022-12-08T10:36:35.928Z,83.6
2022-12-08T10:42:15.494Z,83.5
2022-12-08T10:48:12.376Z,83.9
2022-12-08T10:53:45.235Z,84.7
2022-12-08T10:59:56.722Z,83.5
2022-12-08T11:05:38.929Z,84.2
2022-12-08T11:11:45.676Z,84.7
2022-12-08T11:17:27.947Z,84.7
2022-12-08T11:23:06.329Z,84.9
2022-12-08T11:28:41.724Z,84.6
2022-12-08T11:34:17.120Z,85.4
2022-12-08T11:39:59.922Z,85.5
2022-12-08T11:45:37.174Z,85
2022-12-08T11:51:12.744Z,83.9
2022-12-08T11:57:00.461Z,84.5
2022-12-08T12:02:38.404Z,85
2022-12-08T12:08:24.028Z,84.8
2022-12-08T12:13:59.700Z,84.9
2022-12-08T12:19:35.540Z,82.2
2022-12-08T12:25:31.924Z,83.5
2022-12-08T12:31:25.331Z,84
2022-12-08T12:37:18.175Z,83.1
2022-12-08T12:43:00.839Z,83.6
2022-12-08T12:48:57.766Z,83.7
2022-12-08T12:54:30.925Z,83.3
2022-12-08T13:00:08.216Z,83.2
2022-12-08T13:05:46.724Z,83.2
2022-12-08T13:11:22.126Z,83.5
2022-12-08T13:16:58.198Z,82.9
2022-12-08T13:22:34.743Z,82.3
2022-12-08T13:28:17.786Z,82.9
2022-12-08T13:33:53.199Z,82.5
2022-12-08T13:39:28.841Z,82
2022-12-08T13:46:26.479Z,81.8
2022-12-08T14:02:48.320Z,82.4
2022-12-08T14:09:02.547Z,82.5
2022-12-08T14:15:05.384Z,82.1
2022-12-08T14:21:21.341Z,82
2022-12-08T14:26:57.410Z,82.6
2022-12-08T14:32:33.876Z,81.5
2022-12-08T14:38:09.396Z,80.7
2022-12-08T14:43:45.397Z,81.1
2022-12-08T14:49:20.383Z,81.6
2022-12-08T14:54:55.528Z,82.1
2022-12-08T15:00:38.201Z,82.2
2022-12-08T15:06:13.896Z,82.5
2022-12-08T15:12:01.477Z,82.4
2022-12-08T15:17:40.033Z,82.1
2022-12-08T15:23:15.523Z,82.6
2022-12-08T15:28:56.503Z,82.4
2022-12-08T15:34:31.542Z,83.7
2022-12-08T15:40:07.919Z,86
2022-12-08T15:45:59.777Z,87.5
2022-12-08T15:51:45.133Z,87.7
2022-12-08T16:05:40.740Z,88.5
2022-12-08T16:13:57.752Z,88.6
2022-12-08T16:29:20.976Z,88.5
2022-12-08T16:34:56.197Z,88.3
2022-12-08T16:40:40.745Z,89.1
2022-12-08T16:46:46.693Z,89.5
2022-12-08T16:52:19.842Z,89.3
2022-12-08T16:58:15.890Z,88.9
2022-12-08T17:04:30.782Z,86.3
2022-12-08T17:10:09.518Z,85
2022-12-08T17:15:44.583Z,84.4
2022-12-08T17:21:20.793Z,84.1
2022-12-08T17:27:03.821Z,83.9
2022-12-08T17:33:05.429Z,83.6
2022-12-08T17:38:40.614Z,83.3
2022-12-08T17:44:15.742Z,83.1
2022-12-08T17:49:51.906Z,83.1
2022-12-08T17:55:32.125Z,83
2022-12-08T18:01:07.460Z,82.7
2022-12-08T18:06:43.572Z,82.5
2022-12-08T18:12:24.158Z,82.5
2022-12-08T18:17:59.837Z,82.3
2022-12-08T18:23:34.765Z,82
2022-12-08T18:29:10.626Z,82
2022-12-08T18:34:46.072Z,81.9
2022-12-08T18:40:20.990Z,81.8
2022-12-08T18:45:56.285Z,81.7
2022-12-08T18:51:32.497Z,81.6
2022-12-08T18:57:07.640Z,81.6
2022-12-08T19:02:43.216Z,81.5
2022-12-08T19:08:19.210Z,81.5
2022-12-08T19:14:06.146Z,81.5
2022-12-08T19:19:41.121Z,81.6
2022-12-08T19:25:16.180Z,81.4
2022-12-08T19:30:51.237Z,81.3
2022-12-08T19:36:26.958Z,81.3
2022-12-08T19:42:03.269Z,81.3
2022-12-08T19:47:40.218Z,81.2
2022-12-08T19:53:20.830Z,81.2
2022-12-08T19:58:56.536Z,81.1
2022-12-08T20:04:31.507Z,81.2
2022-12-08T20:10:08.722Z,81.3
2022-12-08T20:15:54.383Z,81.4
2022-12-08T20:21:35.518Z,81.5
2022-12-08T20:27:21.505Z,81.5
2022-12-08T20:32:56.897Z,81.5
2022-12-08T20:38:44.424Z,81.4
2022-12-08T20:44:20.843Z,81.5
2022-12-08T20:50:06.935Z,83.2
2022-12-08T20:55:46.555Z,84.6
2022-12-08T21:01:23.951Z,83
2022-12-08T21:07:46.896Z,82
2022-12-08T21:13:26.424Z,81.6
2022-12-08T21:19:02.462Z,81.4
2022-12-08T21:24:39.498Z,81.2
2022-12-08T21:30:21.161Z,81.1
2022-12-08T21:36:00.443Z,81
2022-12-08T21:41:58.337Z,80.9
2022-12-08T21:47:45.797Z,80.9
2022-12-08T21:53:26.660Z,80.6
2022-12-08T21:59:03.142Z,80.6
2022-12-08T22:04:48.076Z,80.8
2022-12-08T22:10:27.065Z,80.5
2022-12-08T22:16:03.143Z,80.5
2022-12-08T22:21:40.815Z,80.5
2022-12-08T22:27:17.323Z,80.4
2022-12-08T22:32:57.626Z,80.5
2022-12-08T22:38:33.423Z,80.3
2022-12-08T22:44:09.036Z,80.2
2022-12-08T22:50:07.213Z,80.2
2022-12-08T22:55:47.497Z,80.2
2022-12-08T23:01:24.134Z,80.2
2022-12-08T23:07:11.047Z,80
2022-12-08T23:12:47.623Z,80.1
2022-12-08T23:18:23.620Z,80.1
2022-12-08T23:24:00.088Z,80.2
2022-12-08T23:29:36.174Z,80.3
2022-12-08T23:35:12.739Z,80.2
2022-12-08T23:40:49.370Z,79.9
2022-12-08T23:46:47.329Z,79.7
2022-12-08T23:52:23.509Z,79.9
2022-12-08T23:58:00.961Z,80
